East Orwell, Ohio
Current Conditions -  °F | °C
As of 4:53 AM on Friday 31 Oct 2014 (Local Time) from KHZY Reporting Station
Overcast Overcast  
Wind Chill: 37°   Ceiling: 5000
Heat Index: 41°   Visibility: 10mi
Dew Point: 38°   Wind: 6mph
Humidity: 89%   Direction: 190°S
Pressure: 29.97"   Gusts: NA
Location:  41.5284°N, 80.8237°W
Report Text: KHZY 310853Z AUTO 19005KT 10SM OVC050 05/03 A2997 RMK AO2 SLP153 T00500033 56014
Loading
Personal Weather Stations






























Interactive Weather Map
Tropical Storm Tracking
New forecast layout! Learn more

10-Day Weather Forecast

Advertisements
Track Severe Weather on mobile